createdAt,value
2023-02-22T00:01:51.553Z,79.29
2023-02-22T00:04:41.884Z,79.67
2023-02-22T00:07:31.580Z,79.31
2023-02-22T00:10:21.226Z,79.63
2023-02-22T00:13:13.435Z,80.05
2023-02-22T00:16:03.000Z,79.61
2023-02-22T00:18:54.538Z,80.16
2023-02-22T00:21:44.997Z,80.29
2023-02-22T00:24:36.394Z,79.71
2023-02-22T00:27:25.609Z,80.16
2023-02-22T00:30:19.302Z,80.10
2023-02-22T00:33:08.629Z,80.04
2023-02-22T00:35:59.160Z,80.22
2023-02-22T00:38:49.095Z,81.25
2023-02-22T00:41:38.473Z,81.67
2023-02-22T00:44:27.881Z,81.89
2023-02-22T00:47:16.667Z,82.04
2023-02-22T00:50:05.995Z,82.30
2023-02-22T00:52:57.778Z,81.69
2023-02-22T00:55:47.228Z,81.96
2023-02-22T00:58:36.351Z,82.39
2023-02-22T01:01:25.367Z,82.26
2023-02-22T01:04:15.356Z,82.31
2023-02-22T01:07:05.187Z,82.76
2023-02-22T01:09:56.061Z,82.52
2023-02-22T01:12:45.363Z,82.93
2023-02-22T01:15:35.220Z,82.09
2023-02-22T01:18:24.179Z,82.04
2023-02-22T01:21:13.254Z,80.88
2023-02-22T01:24:04.216Z,79.87
2023-02-22T01:26:54.814Z,80.45
2023-02-22T01:29:44.038Z,79.93
2023-02-22T01:32:33.857Z,78.96
2023-02-22T01:35:25.094Z,78.67
2023-02-22T01:38:14.554Z,78.41
2023-02-22T01:41:04.026Z,78.49
2023-02-22T01:43:56.227Z,78.45
2023-02-22T01:46:45.700Z,78.03
2023-02-22T01:49:37.506Z,80.15
2023-02-22T01:52:27.911Z,82.78
2023-02-22T01:55:17.889Z,82.78
2023-02-22T01:58:09.198Z,81.60
2023-02-22T02:01:01.332Z,80.88
2023-02-22T02:03:52.166Z,80.13
2023-02-22T02:06:42.550Z,80.15
2023-02-22T02:09:38.156Z,79.21
2023-02-22T02:12:30.317Z,80.14
2023-02-22T02:15:23.770Z,79.45
2023-02-22T02:18:15.434Z,79.12
2023-02-22T02:21:41.277Z,79.28
2023-02-22T02:24:57.744Z,79.58
2023-02-22T02:28:03.848Z,78.32
2023-02-22T02:31:10.657Z,79.92
2023-02-22T02:34:04.760Z,82.58
2023-02-22T02:36:59.499Z,82.79
2023-02-22T02:39:53.172Z,84.43
2023-02-22T02:42:46.130Z,85.74
2023-02-22T02:45:42.513Z,85.33
2023-02-22T02:48:33.232Z,85.53
2023-02-22T02:51:24.841Z,84.65
2023-02-22T02:54:14.822Z,83.34
2023-02-22T02:57:04.652Z,83.23
2023-02-22T02:59:54.104Z,82.50
2023-02-22T03:02:51.630Z,82.05
2023-02-22T03:05:55.880Z,80.68
2023-02-22T03:08:51.996Z,81.78
2023-02-22T03:11:48.724Z,82.29
2023-02-22T03:14:42.478Z,82.01
2023-02-22T03:17:41.703Z,81.13
2023-02-22T03:20:32.746Z,81.72
2023-02-22T03:23:27.343Z,80.93
2023-02-22T03:26:24.225Z,81.41
2023-02-22T03:29:19.618Z,81.65
2023-02-22T03:32:11.690Z,81.33
2023-02-22T03:35:06.582Z,81.15
2023-02-22T03:38:00.554Z,80.27
2023-02-22T03:40:52.554Z,81.23
2023-02-22T03:43:45.569Z,81.46
2023-02-22T03:46:38.053Z,82.76
2023-02-22T03:49:35.238Z,81.31
2023-02-22T03:52:26.388Z,81.39
2023-02-22T03:55:18.265Z,81.85
2023-02-22T03:58:11.018Z,81.71
2023-02-22T04:01:02.326Z,81.09
2023-02-22T04:03:52.113Z,81.20
2023-02-22T04:06:41.482Z,80.54
2023-02-22T04:09:31.503Z,80.64
2023-02-22T04:12:21.159Z,80.65
2023-02-22T04:15:22.043Z,79.85
2023-02-22T04:18:17.323Z,79.84
2023-02-22T04:21:09.330Z,79.56
2023-02-22T04:24:03.490Z,80.43
2023-02-22T04:26:55.373Z,82.06
2023-02-22T04:29:45.754Z,83.68
2023-02-22T04:32:35.922Z,84.87
2023-02-22T04:35:27.669Z,85.47
2023-02-22T04:38:17.090Z,86.06
2023-02-22T04:41:06.918Z,85.39
2023-02-22T04:49:17.714Z,87.14
2023-02-22T04:52:10.538Z,86.42
2023-02-22T04:55:01.489Z,85.16
2023-02-22T04:57:50.541Z,84.62
2023-02-22T05:00:42.185Z,84.19
2023-02-22T05:03:31.971Z,83.35
2023-02-22T05:06:21.245Z,83.35
2023-02-22T05:09:12.118Z,83.65
2023-02-22T05:12:01.285Z,83.26
2023-02-22T05:14:50.683Z,83.61
2023-02-22T05:17:39.801Z,83.45
2023-02-22T05:20:31.791Z,83.47
2023-02-22T05:23:21.371Z,83.87
2023-02-22T05:26:12.024Z,83.66
2023-02-22T05:29:01.495Z,83.18
2023-02-22T05:31:50.980Z,81.80
2023-02-22T05:34:40.281Z,82.93
2023-02-22T05:37:29.233Z,83.30
2023-02-22T05:40:20.070Z,83.11
2023-02-22T05:43:11.627Z,82.64
2023-02-22T05:46:00.779Z,82.65
2023-02-22T05:48:50.061Z,82.04
2023-02-22T05:51:39.430Z,82.48
2023-02-22T05:54:29.314Z,81.93
2023-02-22T05:57:18.718Z,81.98
2023-02-22T06:00:11.566Z,81.84
2023-02-22T06:03:05.468Z,81.71
2023-02-22T06:05:54.650Z,83.04
2023-02-22T06:08:44.817Z,83.03
2023-02-22T06:11:33.993Z,83.59
2023-02-22T06:14:24.649Z,83.32
2023-02-22T06:17:18.872Z,83.25
2023-02-22T06:20:10.320Z,83.68
2023-02-22T06:23:00.582Z,82.26
2023-02-22T06:25:50.375Z,83.68
2023-02-22T06:28:39.755Z,85.15
2023-02-22T06:31:29.326Z,85.76
2023-02-22T06:34:23.202Z,85.36
2023-02-22T06:37:13.376Z,85.52
2023-02-22T06:40:05.523Z,85.15
2023-02-22T06:42:55.141Z,85.78
2023-02-22T06:45:44.661Z,85.81
2023-02-22T06:48:34.158Z,85.60
2023-02-22T06:51:24.728Z,86.99
2023-02-22T06:54:14.146Z,87.40
2023-02-22T06:57:04.328Z,87.45
2023-02-22T06:59:54.113Z,87.38
2023-02-22T07:02:44.202Z,86.50
2023-02-22T07:05:33.198Z,86.64
2023-02-22T07:08:23.982Z,87.68
2023-02-22T07:11:13.234Z,87.45
2023-02-22T07:14:02.436Z,86.77
2023-02-22T07:16:51.762Z,87.51
2023-02-22T07:19:40.644Z,87.92
2023-02-22T07:22:30.819Z,87.86
2023-02-22T07:25:21.542Z,87.47
2023-02-22T07:28:11.833Z,87.79
2023-02-22T07:31:01.546Z,88.33
2023-02-22T07:33:51.603Z,87.19
2023-02-22T07:36:40.417Z,88.14
2023-02-22T07:39:29.418Z,88.07
2023-02-22T07:42:20.017Z,87.71
2023-02-22T07:45:09.402Z,87.30
2023-02-22T07:47:58.803Z,87.93
2023-02-22T07:50:48.238Z,87.30
2023-02-22T07:53:37.076Z,88.67
2023-02-22T07:56:26.293Z,88.01
2023-02-22T07:59:16.903Z,89.03
2023-02-22T08:02:06.443Z,89.11
2023-02-22T08:04:55.914Z,88.81
2023-02-22T08:07:45.317Z,88.81
2023-02-22T08:10:36.324Z,88.99
2023-02-22T08:13:26.043Z,89.37
2023-02-22T08:16:16.525Z,89.34
2023-02-22T08:19:05.654Z,91.16
2023-02-22T08:21:55.518Z,90.05
2023-02-22T08:24:44.989Z,90.64
2023-02-22T08:27:34.600Z,90.03
2023-02-22T08:30:25.080Z,90.61
2023-02-22T08:33:20.062Z,91.22
2023-02-22T08:36:10.504Z,90.28
2023-02-22T08:38:59.918Z,90.95
2023-02-22T08:41:49.353Z,90.58
2023-02-22T08:44:39.097Z,90.58
2023-02-22T08:47:28.112Z,90.35
2023-02-22T08:50:21.020Z,90.46
2023-02-22T08:53:11.636Z,89.86
2023-02-22T08:56:00.756Z,90.32
2023-02-22T08:58:49.713Z,89.76
2023-02-22T09:01:39.014Z,90.32
2023-02-22T09:04:28.608Z,90.68
2023-02-22T09:07:19.496Z,89.94
2023-02-22T09:10:09.046Z,90.21
2023-02-22T09:13:00.750Z,89.58
2023-02-22T09:15:49.852Z,88.45
2023-02-22T09:18:44.065Z,87.88
2023-02-22T09:21:34.184Z,88.06
2023-02-22T09:24:25.031Z,87.32
2023-02-22T09:27:13.922Z,87.09
2023-02-22T09:30:03.535Z,86.72
2023-02-22T09:32:54.316Z,86.50
2023-02-22T09:35:46.661Z,86.17
2023-02-22T09:38:35.705Z,85.36
2023-02-22T09:41:34.593Z,84.89
2023-02-22T09:44:36.301Z,84.31
2023-02-22T09:47:32.671Z,84.29
2023-02-22T09:50:24.107Z,83.66
2023-02-22T09:53:22.024Z,83.97
2023-02-22T09:56:12.993Z,83.73
2023-02-22T09:59:05.712Z,82.75
2023-02-22T10:02:00.469Z,82.30
2023-02-22T10:04:52.891Z,82.26
2023-02-22T10:07:45.376Z,82.59
2023-02-22T10:10:36.916Z,82.52
2023-02-22T10:13:32.253Z,82.41
2023-02-22T10:16:28.225Z,81.44
2023-02-22T10:19:26.603Z,81.05
2023-02-22T10:22:24.775Z,81.68
2023-02-22T10:25:18.064Z,81.54
2023-02-22T10:28:13.710Z,81.38
2023-02-22T10:31:05.628Z,80.11
2023-02-22T10:33:59.761Z,79.59
2023-02-22T10:36:51.161Z,79.93
2023-02-22T10:39:41.470Z,79.08
2023-02-22T10:42:31.144Z,78.92
2023-02-22T10:45:23.664Z,77.73
2023-02-22T10:48:15.127Z,77.85
2023-02-22T10:51:08.663Z,77.30
2023-02-22T10:54:04.105Z,75.58
2023-02-22T10:56:55.646Z,75.88
2023-02-22T10:59:45.356Z,73.64
2023-02-22T11:02:35.714Z,73.91
2023-02-22T11:05:30.213Z,73.28
2023-02-22T11:08:29.127Z,71.75
2023-02-22T11:11:25.231Z,71.89
2023-02-22T11:14:16.408Z,71.36
2023-02-22T11:17:09.103Z,69.47
2023-02-22T11:19:58.473Z,70.14
2023-02-22T11:22:47.532Z,70.52
2023-02-22T11:25:39.283Z,69.77
2023-02-22T11:28:32.893Z,67.91
2023-02-22T11:31:23.540Z,67.99
2023-02-22T11:34:28.694Z,67.23
2023-02-22T11:37:22.362Z,67.55
2023-02-22T11:40:18.443Z,66.75
2023-02-22T11:43:17.129Z,66.93
2023-02-22T11:46:08.574Z,66.39
2023-02-22T11:49:04.715Z,67.05
2023-02-22T11:52:11.206Z,66.21
2023-02-22T11:55:29.743Z,65.31
2023-02-22T11:58:40.012Z,65.96
2023-02-22T12:01:34.844Z,64.66
2023-02-22T12:04:45.419Z,64.70
2023-02-22T12:07:43.381Z,63.92
2023-02-22T12:10:44.242Z,63.65
2023-02-22T12:13:43.809Z,64.30
2023-02-22T12:16:39.392Z,64.43
2023-02-22T12:19:33.185Z,62.72
2023-02-22T12:22:24.513Z,63.33
2023-02-22T12:25:20.351Z,62.35
2023-02-22T12:28:24.374Z,62.64
2023-02-22T12:31:23.144Z,62.53
2023-02-22T12:34:17.409Z,62.63
2023-02-22T12:37:13.435Z,63.44
2023-02-22T12:40:09.284Z,63.23
2023-02-22T12:43:01.105Z,63.08
2023-02-22T12:45:54.673Z,61.69
2023-02-22T12:48:48.796Z,62.74
2023-02-22T12:51:44.510Z,62.48
2023-02-22T12:54:43.018Z,62.03
2023-02-22T12:57:39.070Z,61.35
2023-02-22T13:00:29.855Z,61.51
2023-02-22T13:03:29.057Z,60.18
2023-02-22T13:06:32.153Z,61.48
2023-02-22T13:09:36.154Z,60.70
2023-02-22T13:12:28.159Z,61.93
2023-02-22T13:15:20.641Z,60.28
2023-02-22T13:18:15.983Z,61.00
2023-02-22T13:21:06.823Z,60.70
2023-02-22T13:24:04.896Z,61.44
2023-02-22T13:26:56.908Z,61.19
2023-02-22T13:29:47.842Z,60.81
2023-02-22T13:32:47.942Z,60.53
2023-02-22T13:36:01.250Z,61.59
2023-02-22T13:39:28.008Z,60.76
2023-02-22T13:42:39.663Z,60.88
2023-02-22T13:45:51.802Z,59.77
2023-02-22T13:48:58.399Z,60.27
2023-02-22T13:51:50.664Z,60.73
2023-02-22T13:54:45.075Z,59.74
2023-02-22T13:57:39.765Z,59.56
2023-02-22T14:00:44.488Z,59.92
2023-02-22T14:03:40.978Z,59.98
2023-02-22T14:06:38.230Z,60.94
2023-02-22T14:09:47.022Z,61.05
2023-02-22T14:12:51.252Z,60.55
2023-02-22T14:16:20.696Z,59.69
2023-02-22T14:19:16.077Z,60.18
2023-02-22T14:22:08.788Z,59.83
2023-02-22T14:24:59.025Z,60.21
2023-02-22T14:27:47.523Z,60.01
2023-02-22T14:30:38.157Z,59.08
2023-02-22T14:33:56.455Z,59.89
2023-02-22T14:36:52.040Z,60.05
2023-02-22T14:39:43.529Z,59.87
2023-02-22T14:42:35.921Z,59.63
2023-02-22T14:45:27.396Z,59.37
2023-02-22T14:48:25.081Z,59.83
2023-02-22T14:51:21.924Z,60.06
2023-02-22T14:54:16.193Z,60.12
2023-02-22T14:57:15.160Z,59.86
2023-02-22T15:00:19.834Z,59.09
2023-02-22T15:03:19.049Z,58.96
2023-02-22T15:06:15.007Z,59.46
2023-02-22T15:09:09.985Z,59.19
2023-02-22T15:12:14.043Z,59.33
2023-02-22T15:15:17.364Z,59.34
2023-02-22T15:18:12.684Z,59.09
2023-02-22T15:21:07.090Z,59.35
2023-02-22T15:23:57.375Z,59.25
2023-02-22T15:27:00.339Z,59.31
2023-02-22T15:29:50.600Z,58.98
2023-02-22T15:32:57.134Z,59.40
2023-02-22T15:35:55.701Z,59.25
2023-02-22T15:38:49.248Z,58.99
2023-02-22T15:41:38.029Z,59.06
2023-02-22T15:44:27.630Z,59.26
2023-02-22T15:47:19.598Z,59.33
2023-02-22T15:50:25.870Z,59.37
2023-02-22T15:53:27.427Z,58.88
2023-02-22T15:56:17.919Z,59.47
2023-02-22T15:59:14.992Z,59.48
2023-02-22T16:02:04.106Z,59.70
2023-02-22T16:04:59.937Z,60.09
2023-02-22T16:07:51.040Z,59.75
2023-02-22T16:10:41.341Z,59.99
2023-02-22T16:13:33.054Z,59.96
2023-02-22T16:16:24.421Z,60.33
2023-02-22T16:19:34.581Z,60.52
2023-02-22T16:22:29.219Z,61.08
2023-02-22T16:25:30.113Z,61.39
2023-02-22T16:28:34.056Z,61.00
2023-02-22T16:31:25.486Z,61.41
2023-02-22T16:34:15.946Z,61.51
2023-02-22T16:37:04.586Z,61.39
2023-02-22T16:39:53.344Z,61.50
2023-02-22T16:42:43.244Z,61.81
2023-02-22T16:45:31.739Z,61.89
2023-02-22T16:48:22.354Z,61.95
2023-02-22T16:51:14.961Z,62.17
2023-02-22T16:54:04.126Z,62.32
2023-02-22T16:57:05.136Z,62.41
2023-02-22T16:59:57.380Z,63.40
2023-02-22T17:02:46.994Z,63.92
2023-02-22T17:05:36.846Z,65.03
2023-02-22T17:08:25.808Z,65.09
2023-02-22T17:11:15.808Z,65.37
2023-02-22T17:14:04.806Z,65.63
2023-02-22T17:16:54.820Z,65.74
2023-02-22T17:19:43.554Z,65.64
2023-02-22T17:22:32.312Z,65.79
2023-02-22T17:25:24.286Z,65.86
2023-02-22T17:28:13.164Z,66.01
2023-02-22T17:31:02.498Z,66.30
2023-02-22T17:33:52.620Z,66.56
2023-02-22T17:36:42.178Z,66.70
2023-02-22T17:39:30.913Z,66.84
2023-02-22T17:42:19.709Z,67.14
2023-02-22T17:45:09.469Z,67.47
2023-02-22T17:47:59.643Z,67.60
2023-02-22T17:50:50.517Z,67.67
2023-02-22T17:53:39.920Z,68.15
2023-02-22T17:56:28.501Z,70.32
2023-02-22T17:59:17.139Z,69.97
2023-02-22T18:02:06.005Z,69.85
2023-02-22T18:04:54.850Z,69.87
2023-02-22T18:07:45.132Z,69.54
2023-02-22T18:10:33.735Z,69.70
2023-02-22T18:13:22.846Z,69.44
2023-02-22T18:16:11.901Z,69.97
2023-02-22T18:19:01.673Z,69.96
2023-02-22T18:21:50.244Z,72.18
2023-02-22T18:24:40.119Z,71.70
2023-02-22T18:27:30.239Z,71.46
2023-02-22T18:30:19.427Z,71.45
2023-02-22T18:33:11.337Z,71.50
2023-02-22T18:36:00.567Z,71.39
2023-02-22T18:38:50.245Z,74.84
2023-02-22T18:41:40.550Z,74.86
2023-02-22T18:44:29.622Z,75.87
2023-02-22T18:47:18.748Z,74.71
2023-02-22T18:50:08.632Z,74.18
2023-02-22T18:52:57.624Z,73.34
2023-02-22T18:55:46.398Z,73.48
2023-02-22T18:58:38.691Z,72.71
2023-02-22T19:01:27.871Z,72.63
2023-02-22T19:04:18.401Z,72.67
2023-02-22T19:07:07.232Z,72.55
2023-02-22T19:09:56.218Z,72.45
2023-02-22T19:12:45.510Z,72.29
2023-02-22T19:15:36.009Z,72.79
2023-02-22T19:18:25.143Z,72.39
2023-02-22T19:21:15.119Z,72.46
2023-02-22T19:24:04.616Z,72.88
2023-02-22T19:26:57.519Z,72.79
2023-02-22T19:29:47.170Z,73.32
2023-02-22T19:32:40.770Z,72.81
2023-02-22T19:35:29.582Z,73.31
2023-02-22T19:38:18.149Z,73.34
2023-02-22T19:41:12.662Z,72.63
2023-02-22T19:44:03.312Z,75.07
2023-02-22T19:46:55.274Z,76.84
2023-02-22T19:49:45.107Z,79.47
2023-02-22T19:52:35.623Z,81.06
2023-02-22T19:55:24.186Z,81.62
2023-02-22T19:58:15.390Z,79.74
2023-02-22T20:01:05.194Z,79.73
2023-02-22T20:03:55.802Z,78.07
2023-02-22T20:06:47.199Z,77.80
2023-02-22T20:09:39.680Z,77.88
2023-02-22T20:12:28.957Z,77.72
2023-02-22T20:15:17.999Z,78.86
2023-02-22T20:18:07.057Z,80.98
2023-02-22T20:20:55.823Z,81.54
2023-02-22T20:23:45.781Z,81.52
2023-02-22T20:26:36.799Z,83.28
2023-02-22T20:29:29.806Z,83.66
2023-02-22T20:32:19.418Z,84.56
2023-02-22T20:35:09.473Z,84.88
2023-02-22T20:37:59.476Z,85.78
2023-02-22T20:40:49.878Z,85.92
2023-02-22T20:43:39.795Z,85.16
2023-02-22T20:46:31.815Z,83.45
2023-02-22T20:49:21.610Z,82.50
2023-02-22T20:52:10.924Z,82.28
2023-02-22T20:54:59.456Z,82.06
2023-02-22T20:57:49.786Z,81.99
2023-02-22T21:00:39.125Z,81.58
2023-02-22T21:03:28.564Z,81.58
2023-02-22T21:06:21.357Z,81.17
2023-02-22T21:09:14.184Z,80.39
2023-02-22T21:12:03.259Z,80.19
2023-02-22T21:14:53.606Z,80.06
2023-02-22T21:17:47.696Z,79.85
2023-02-22T21:20:38.826Z,78.89
2023-02-22T21:23:27.855Z,79.40
2023-02-22T21:26:19.290Z,80.75
2023-02-22T21:29:08.680Z,81.18
2023-02-22T21:32:00.070Z,82.75
2023-02-22T21:34:48.756Z,81.36
2023-02-22T21:37:37.491Z,81.45
2023-02-22T21:40:27.583Z,80.43
2023-02-22T21:43:16.768Z,82.13
2023-02-22T21:46:06.531Z,83.20
2023-02-22T21:48:58.995Z,82.60
2023-02-22T21:51:48.195Z,82.08
2023-02-22T21:54:37.056Z,83.40
2023-02-22T21:57:26.336Z,84.18
2023-02-22T22:00:17.756Z,83.56
2023-02-22T22:03:11.718Z,82.78
2023-02-22T22:06:02.128Z,82.23
2023-02-22T22:08:53.873Z,83.57
2023-02-22T22:11:42.745Z,83.18
2023-02-22T22:14:32.342Z,82.38
2023-02-22T22:17:22.112Z,81.74
2023-02-22T22:20:11.925Z,81.98
2023-02-22T22:23:02.034Z,81.58
2023-02-22T22:25:51.722Z,83.05
2023-02-22T22:28:41.499Z,82.42
2023-02-22T22:31:30.548Z,83.13
2023-02-22T22:34:19.722Z,85.41
2023-02-22T22:37:09.443Z,84.55
2023-02-22T22:39:59.951Z,85.45
2023-02-22T22:42:49.192Z,84.70
2023-02-22T22:45:39.383Z,86.18
2023-02-22T22:48:29.367Z,85.92
2023-02-22T22:51:20.772Z,85.37
2023-02-22T22:54:11.297Z,85.25
2023-02-22T22:57:01.725Z,85.17
2023-02-22T22:59:50.723Z,85.45
2023-02-22T23:02:40.753Z,86.82
2023-02-22T23:05:29.749Z,88.76
2023-02-22T23:08:20.877Z,89.52
2023-02-22T23:11:10.391Z,89.76
2023-02-22T23:14:03.522Z,88.70
2023-02-22T23:16:55.496Z,88.43
2023-02-22T23:19:46.041Z,88.48
2023-02-22T23:22:34.967Z,89.13
2023-02-22T23:25:24.349Z,89.41
2023-02-22T23:28:15.888Z,89.54
2023-02-22T23:31:09.583Z,88.55
2023-02-22T23:34:00.144Z,87.82
2023-02-22T23:36:48.836Z,87.22
2023-02-22T23:39:37.914Z,86.29
2023-02-22T23:42:27.520Z,86.34
2023-02-22T23:45:22.937Z,86.35
2023-02-22T23:48:13.724Z,86.49
2023-02-22T23:51:09.331Z,86.87
2023-02-22T23:53:58.536Z,87.82
2023-02-22T23:56:56.595Z,89.38
2023-02-22T23:59:46.002Z,89.52
